createdAt,value
2016-09-17T00:00:23.143Z,0
2016-09-17T00:01:23.798Z,0
2016-09-17T00:02:25.329Z,0
2016-09-17T00:03:26.575Z,0
2016-09-17T00:04:27.286Z,0
2016-09-17T00:05:27.927Z,0
2016-09-17T00:06:28.682Z,0
2016-09-17T00:07:31.493Z,0
2016-09-17T00:08:32.109Z,0
2016-09-17T00:09:32.762Z,0
2016-09-17T00:10:33.408Z,0
2016-09-17T00:11:34.090Z,0
2016-09-17T00:12:34.738Z,0
2016-09-17T00:13:35.399Z,0
2016-09-17T00:14:36.054Z,0
2016-09-17T00:15:36.725Z,0
2016-09-17T00:16:37.404Z,0
2016-09-17T00:17:38.122Z,0
2016-09-17T00:18:38.880Z,0
2016-09-17T00:19:39.492Z,0
2016-09-17T00:20:40.205Z,0
2016-09-17T00:21:40.839Z,0
2016-09-17T00:22:41.493Z,0
2016-09-17T00:23:42.877Z,0
2016-09-17T00:24:43.538Z,0
2016-09-17T00:25:44.209Z,0
2016-09-17T00:26:45.547Z,0
2016-09-17T00:27:45.821Z,0
2016-09-17T00:28:46.523Z,0
2016-09-17T00:29:47.183Z,0
2016-09-17T00:30:47.841Z,0
2016-09-17T00:31:48.562Z,0
2016-09-17T00:32:49.244Z,0
2016-09-17T00:33:49.916Z,0
2016-09-17T00:34:50.568Z,0
2016-09-17T00:35:51.251Z,0
2016-09-17T00:36:51.922Z,0
2016-09-17T00:37:52.579Z,0
2016-09-17T00:38:53.256Z,0
2016-09-17T00:39:53.941Z,0
2016-09-17T00:40:54.613Z,0
2016-09-17T00:41:55.286Z,0
2016-09-17T00:42:55.940Z,0
2016-09-17T00:43:56.603Z,0
2016-09-17T00:44:57.272Z,0
2016-09-17T00:45:57.954Z,0
2016-09-17T00:46:58.627Z,0
2016-09-17T00:47:59.278Z,0
2016-09-17T00:48:59.921Z,0
2016-09-17T00:50:00.569Z,0
2016-09-17T00:51:01.237Z,0
2016-09-17T00:52:01.883Z,0
2016-09-17T00:53:02.548Z,0
2016-09-17T00:54:03.226Z,0
2016-09-17T00:55:03.884Z,0
2016-09-17T00:56:04.527Z,0
2016-09-17T00:57:05.191Z,0
2016-09-17T00:58:05.842Z,0
2016-09-17T00:59:06.489Z,0
2016-09-17T01:00:07.143Z,0
2016-09-17T01:01:07.804Z,0
2016-09-17T01:02:08.466Z,0
2016-09-17T01:03:09.103Z,0
2016-09-17T01:04:09.742Z,0
2016-09-17T01:05:10.393Z,0
2016-09-17T01:06:11.033Z,0
2016-09-17T01:07:11.671Z,0
2016-09-17T01:08:12.323Z,0
2016-09-17T01:09:12.974Z,0
2016-09-17T01:10:13.624Z,0
2016-09-17T01:11:14.266Z,0
2016-09-17T01:12:14.906Z,0
2016-09-17T01:13:15.571Z,0
2016-09-17T01:14:16.258Z,0
2016-09-17T01:15:16.903Z,0
2016-09-17T01:16:17.859Z,0
2016-09-17T01:17:18.504Z,0
2016-09-17T01:18:19.156Z,0
2016-09-17T01:19:19.825Z,0
2016-09-17T01:20:20.472Z,0
2016-09-17T01:21:21.120Z,0
2016-09-17T01:22:22.883Z,0
2016-09-17T01:23:23.527Z,0
2016-09-17T01:24:24.184Z,0
2016-09-17T01:25:24.832Z,0
2016-09-17T01:26:25.480Z,0
2016-09-17T01:27:26.162Z,0
2016-09-17T01:28:26.801Z,0
2016-09-17T01:29:27.474Z,0
2016-09-17T01:30:28.124Z,0
2016-09-17T01:31:28.860Z,0
2016-09-17T01:32:29.502Z,0
2016-09-17T01:33:30.150Z,0
2016-09-17T01:34:30.800Z,0
2016-09-17T01:35:31.440Z,0
2016-09-17T01:36:32.117Z,0
2016-09-17T01:37:32.766Z,0
2016-09-17T01:38:33.422Z,0
2016-09-17T01:39:34.087Z,0
2016-09-17T01:40:34.743Z,0
2016-09-17T01:41:35.425Z,0
2016-09-17T01:42:36.131Z,0
2016-09-17T01:43:36.781Z,0
2016-09-17T01:44:37.434Z,0
2016-09-17T01:45:38.087Z,0
2016-09-17T01:46:38.720Z,0
2016-09-17T01:47:39.358Z,0
2016-09-17T01:48:40.013Z,0
2016-09-17T01:49:40.659Z,0
2016-09-17T01:50:41.322Z,0
2016-09-17T01:51:41.965Z,0
2016-09-17T01:52:42.611Z,0
2016-09-17T01:53:43.287Z,0
2016-09-17T01:54:43.932Z,0
2016-09-17T01:55:44.572Z,0
2016-09-17T01:56:45.219Z,0
2016-09-17T01:57:45.894Z,0
2016-09-17T01:58:46.550Z,0
2016-09-17T01:59:47.193Z,0
2016-09-17T02:00:47.845Z,0
2016-09-17T02:01:48.494Z,0
2016-09-17T02:02:49.153Z,0
2016-09-17T02:03:49.810Z,0
2016-09-17T02:04:50.467Z,0
2016-09-17T02:05:51.119Z,0
2016-09-17T02:06:51.768Z,0
2016-09-17T02:07:52.425Z,0
2016-09-17T02:08:53.064Z,0
2016-09-17T02:09:53.707Z,0
2016-09-17T02:10:54.367Z,0
2016-09-17T02:11:55.009Z,0
2016-09-17T02:12:55.671Z,0
2016-09-17T02:13:56.316Z,0
2016-09-17T02:14:56.954Z,0
2016-09-17T02:15:57.591Z,0
2016-09-17T02:16:58.241Z,0
2016-09-17T02:17:58.893Z,0
2016-09-17T02:18:59.550Z,0
2016-09-17T02:20:00.187Z,0
2016-09-17T02:21:00.843Z,0
2016-09-17T02:22:01.818Z,0
2016-09-17T02:23:02.465Z,0
2016-09-17T02:24:03.108Z,0
2016-09-17T02:25:03.749Z,0
2016-09-17T02:26:04.392Z,0
2016-09-17T02:27:05.024Z,0
2016-09-17T02:28:05.668Z,0
2016-09-17T02:29:06.325Z,0
2016-09-17T02:30:06.965Z,0
2016-09-17T02:31:07.615Z,0
2016-09-17T02:32:08.272Z,0
2016-09-17T02:33:08.911Z,0
2016-09-17T02:34:09.553Z,0
2016-09-17T02:35:10.208Z,0
2016-09-17T02:36:10.848Z,0
2016-09-17T02:37:11.493Z,0
2016-09-17T02:38:12.155Z,0
2016-09-17T02:39:12.818Z,0
2016-09-17T02:40:13.482Z,0
2016-09-17T02:41:14.130Z,0
2016-09-17T02:42:14.769Z,0
2016-09-17T02:43:15.412Z,0
2016-09-17T02:44:16.058Z,0
2016-09-17T02:45:16.681Z,0
2016-09-17T02:46:17.344Z,0
2016-09-17T02:47:17.989Z,0
2016-09-17T02:48:18.633Z,0
2016-09-17T02:49:19.273Z,0
2016-09-17T02:50:19.929Z,0
2016-09-17T02:51:20.591Z,0
2016-09-17T02:52:21.250Z,0
2016-09-17T02:53:21.911Z,0
2016-09-17T02:54:22.565Z,0
2016-09-17T02:55:23.208Z,0
2016-09-17T02:56:23.861Z,0
2016-09-17T02:57:24.520Z,0
2016-09-17T02:58:25.182Z,0
2016-09-17T02:59:25.846Z,0
2016-09-17T03:00:26.489Z,0
2016-09-17T03:01:27.143Z,0
2016-09-17T03:02:27.796Z,0
2016-09-17T03:03:28.441Z,0
2016-09-17T03:04:29.096Z,0
2016-09-17T03:05:29.771Z,0
2016-09-17T03:06:31.559Z,0
2016-09-17T03:07:32.208Z,0
2016-09-17T03:08:32.863Z,0
2016-09-17T03:09:33.516Z,0
2016-09-17T03:10:34.163Z,0
2016-09-17T03:11:34.817Z,0
2016-09-17T03:12:35.491Z,0
2016-09-17T03:13:36.163Z,0
2016-09-17T03:14:36.813Z,0
2016-09-17T03:15:37.474Z,0
2016-09-17T03:16:38.122Z,0
2016-09-17T03:17:38.769Z,0
2016-09-17T03:18:39.410Z,0
2016-09-17T03:19:40.059Z,0
2016-09-17T03:20:40.709Z,0
2016-09-17T03:21:41.393Z,0
2016-09-17T03:22:42.052Z,0
2016-09-17T03:23:42.727Z,0
2016-09-17T03:24:43.387Z,0
2016-09-17T03:25:44.033Z,0
2016-09-17T03:26:44.711Z,0
2016-09-17T03:27:45.383Z,0
2016-09-17T03:28:46.048Z,0
2016-09-17T03:29:46.692Z,0
2016-09-17T03:30:47.343Z,0
2016-09-17T03:31:48.018Z,0
2016-09-17T03:32:48.690Z,0
2016-09-17T03:33:49.361Z,0
2016-09-17T03:34:50.023Z,0
2016-09-17T03:35:50.676Z,0
2016-09-17T03:36:51.322Z,0
2016-09-17T03:37:51.995Z,0
2016-09-17T03:38:52.685Z,0
2016-09-17T03:39:53.315Z,0
2016-09-17T03:40:54.126Z,0
2016-09-17T03:41:54.773Z,0
2016-09-17T03:42:55.452Z,0
2016-09-17T03:43:56.136Z,0
2016-09-17T03:44:56.806Z,0
2016-09-17T03:45:57.448Z,0
2016-09-17T03:46:58.099Z,0
2016-09-17T03:47:58.742Z,0
2016-09-17T03:48:59.407Z,0
2016-09-17T03:50:00.109Z,0
2016-09-17T03:51:00.785Z,0
2016-09-17T03:52:01.444Z,0
2016-09-17T03:53:02.096Z,0
2016-09-17T03:54:02.739Z,0
2016-09-17T03:55:03.396Z,0
2016-09-17T03:56:04.098Z,0
2016-09-17T03:57:04.753Z,0
2016-09-17T03:58:05.414Z,0
2016-09-17T03:59:06.061Z,0
2016-09-17T04:00:06.725Z,0
2016-09-17T04:01:07.499Z,0
2016-09-17T04:02:08.145Z,0
2016-09-17T04:03:08.792Z,0
2016-09-17T04:04:09.442Z,0
2016-09-17T04:05:10.104Z,0
2016-09-17T04:06:10.762Z,0
2016-09-17T04:07:11.495Z,0
2016-09-17T04:08:12.166Z,0
2016-09-17T04:09:12.845Z,0
2016-09-17T04:10:13.519Z,0
2016-09-17T04:11:14.188Z,0
2016-09-17T04:12:14.833Z,0
2016-09-17T04:13:15.470Z,0
2016-09-17T04:14:16.101Z,0
2016-09-17T04:15:16.748Z,0
2016-09-17T04:16:17.393Z,0
2016-09-17T04:17:18.100Z,0
2016-09-17T04:18:18.747Z,0
2016-09-17T04:19:19.413Z,0
2016-09-17T04:20:20.055Z,0
2016-09-17T04:21:20.718Z,0
2016-09-17T04:22:21.359Z,0
2016-09-17T04:23:22.000Z,0
2016-09-17T04:24:22.672Z,0
2016-09-17T04:25:23.328Z,0
2016-09-17T04:26:24.014Z,0
2016-09-17T04:27:24.709Z,0
2016-09-17T04:28:25.345Z,0
2016-09-17T04:29:26.007Z,0
2016-09-17T04:30:26.687Z,0
2016-09-17T04:31:27.379Z,0
2016-09-17T04:32:28.042Z,0
2016-09-17T04:33:28.695Z,0
2016-09-17T04:34:29.344Z,0
2016-09-17T04:35:30.014Z,0
2016-09-17T04:36:30.668Z,0
2016-09-17T04:37:31.308Z,0
2016-09-17T04:38:31.976Z,0
2016-09-17T04:39:32.620Z,0
2016-09-17T04:40:33.273Z,0
2016-09-17T04:41:33.920Z,0
2016-09-17T04:42:34.563Z,4
2016-09-17T04:43:35.221Z,4
2016-09-17T04:44:35.854Z,4
2016-09-17T04:45:36.488Z,0
2016-09-17T04:46:37.146Z,4
2016-09-17T04:47:37.790Z,4
2016-09-17T04:48:38.451Z,8
2016-09-17T04:49:39.108Z,8
2016-09-17T04:50:39.765Z,8
2016-09-17T04:51:40.407Z,8
2016-09-17T04:52:41.070Z,12
2016-09-17T04:53:41.723Z,8
2016-09-17T04:54:42.373Z,12
2016-09-17T04:55:43.049Z,12
2016-09-17T04:56:43.692Z,12
2016-09-17T04:57:44.357Z,12
2016-09-17T04:58:45.005Z,16
2016-09-17T04:59:45.667Z,16
2016-09-17T05:00:46.314Z,16
2016-09-17T05:01:46.969Z,20
2016-09-17T05:02:47.610Z,20
2016-09-17T05:03:48.271Z,24
2016-09-17T05:04:48.927Z,24
2016-09-17T05:05:49.578Z,28
2016-09-17T05:06:50.257Z,28
2016-09-17T05:07:50.900Z,32
2016-09-17T05:08:51.539Z,32
2016-09-17T05:09:52.177Z,36
2016-09-17T05:10:52.815Z,36
2016-09-17T05:11:53.476Z,36
2016-09-17T05:12:54.130Z,40
2016-09-17T05:13:54.775Z,44
2016-09-17T05:14:55.421Z,44
2016-09-17T05:15:56.075Z,48
2016-09-17T05:16:56.713Z,48
2016-09-17T05:17:57.362Z,52
2016-09-17T05:18:58.030Z,52
2016-09-17T05:19:58.701Z,56
2016-09-17T05:20:59.364Z,60
2016-09-17T05:22:00.014Z,60
2016-09-17T05:23:00.659Z,64
2016-09-17T05:24:01.307Z,72
2016-09-17T05:25:01.962Z,80
2016-09-17T05:26:02.616Z,88
2016-09-17T05:27:03.269Z,92
2016-09-17T05:28:03.900Z,100
2016-09-17T05:29:04.575Z,104
2016-09-17T05:30:05.221Z,112
2016-09-17T05:31:05.878Z,120
2016-09-17T05:32:06.518Z,136
2016-09-17T05:33:07.170Z,148
2016-09-17T05:34:07.811Z,164
2016-09-17T05:35:08.468Z,180
2016-09-17T05:36:09.106Z,196
2016-09-17T05:37:09.755Z,212
2016-09-17T05:38:10.409Z,228
2016-09-17T05:39:11.084Z,236
2016-09-17T05:40:11.732Z,244
2016-09-17T05:41:12.380Z,248
2016-09-17T05:42:13.031Z,244
2016-09-17T05:43:13.664Z,244
2016-09-17T05:44:14.308Z,244
2016-09-17T05:45:14.964Z,244
2016-09-17T05:46:15.610Z,244
2016-09-17T05:47:16.247Z,256
2016-09-17T05:48:16.907Z,260
2016-09-17T05:49:17.568Z,252
2016-09-17T05:50:18.224Z,236
2016-09-17T05:51:18.879Z,224
2016-09-17T05:52:19.537Z,228
2016-09-17T05:53:20.184Z,256
2016-09-17T05:54:20.833Z,304
2016-09-17T05:55:21.504Z,344
2016-09-17T05:56:22.154Z,396
2016-09-17T05:57:22.810Z,496
2016-09-17T05:58:23.466Z,548
2016-09-17T05:59:24.113Z,568
2016-09-17T06:00:24.842Z,572
2016-09-17T06:01:25.490Z,612
2016-09-17T06:02:26.157Z,600
2016-09-17T06:03:26.805Z,592
2016-09-17T06:04:27.457Z,600
2016-09-17T06:05:28.124Z,668
2016-09-17T06:06:28.767Z,772
2016-09-17T06:07:29.419Z,836
2016-09-17T06:08:30.080Z,840
2016-09-17T06:09:30.729Z,784
2016-09-17T06:10:31.398Z,748
2016-09-17T06:11:32.039Z,728
2016-09-17T06:12:32.697Z,736
2016-09-17T06:13:33.357Z,780
2016-09-17T06:14:34.012Z,896
2016-09-17T06:15:34.656Z,1016
2016-09-17T06:16:35.311Z,1136
2016-09-17T06:17:35.963Z,1200
2016-09-17T06:18:36.618Z,1176
2016-09-17T06:19:37.282Z,1076
2016-09-17T06:20:37.932Z,976
2016-09-17T06:21:38.599Z,924
2016-09-17T06:22:39.264Z,908
2016-09-17T06:23:39.906Z,904
2016-09-17T06:24:40.549Z,916
2016-09-17T06:25:41.198Z,1012
2016-09-17T06:26:41.856Z,1128
2016-09-17T06:27:42.520Z,1148
2016-09-17T06:28:43.179Z,1080
2016-09-17T06:29:43.828Z,932
2016-09-17T06:30:44.464Z,772
2016-09-17T06:31:45.120Z,768
2016-09-17T06:32:45.750Z,784
2016-09-17T06:33:46.399Z,940
2016-09-17T06:34:47.055Z,1148
2016-09-17T06:35:47.707Z,1316
2016-09-17T06:36:48.340Z,1528
2016-09-17T06:37:48.996Z,1552
2016-09-17T06:38:49.647Z,1504
2016-09-17T06:39:50.297Z,1508
2016-09-17T06:40:50.958Z,1636
2016-09-17T06:41:51.588Z,1544
2016-09-17T06:42:52.244Z,1576
2016-09-17T06:43:52.906Z,1796
2016-09-17T06:44:53.570Z,1928
2016-09-17T06:45:54.216Z,1988
2016-09-17T06:46:54.857Z,2160
2016-09-17T06:47:55.515Z,2352
2016-09-17T06:48:56.168Z,2496
2016-09-17T06:49:56.824Z,2660
2016-09-17T06:50:57.483Z,2896
2016-09-17T06:51:58.128Z,3104
2016-09-17T06:52:58.789Z,3384
2016-09-17T06:53:59.450Z,3436
2016-09-17T06:55:00.102Z,3568
2016-09-17T06:56:00.743Z,3420
2016-09-17T06:57:01.392Z,3504
2016-09-17T06:58:02.056Z,3680
2016-09-17T06:59:02.706Z,3816
2016-09-17T07:00:03.374Z,3948
2016-09-17T07:01:04.035Z,4252
2016-09-17T07:02:04.683Z,4168
2016-09-17T07:03:05.328Z,4096
2016-09-17T07:04:05.976Z,4100
2016-09-17T07:05:06.621Z,4132
2016-09-17T07:06:07.258Z,4552
2016-09-17T07:07:07.906Z,4684
2016-09-17T07:08:08.570Z,4912
2016-09-17T07:09:09.243Z,4368
2016-09-17T07:10:09.901Z,3536
2016-09-17T07:11:10.555Z,4044
2016-09-17T07:12:11.198Z,4396
2016-09-17T07:13:11.879Z,4124
2016-09-17T07:14:12.532Z,3692
2016-09-17T07:15:13.200Z,3672
2016-09-17T07:16:13.845Z,4248
2016-09-17T07:17:14.494Z,5540
2016-09-17T07:18:15.155Z,5932
2016-09-17T07:19:15.827Z,6216
2016-09-17T07:20:16.469Z,5248
2016-09-17T07:21:17.135Z,4392
2016-09-17T07:22:17.787Z,4628
2016-09-17T07:23:18.459Z,4044
2016-09-17T07:24:19.124Z,4464
2016-09-17T07:25:19.769Z,4860
2016-09-17T07:26:20.603Z,5700
2016-09-17T07:27:21.266Z,5860
2016-09-17T07:28:21.914Z,5524
2016-09-17T07:29:22.610Z,4984
2016-09-17T07:30:23.281Z,5240
2016-09-17T07:31:23.959Z,4908
2016-09-17T07:32:24.691Z,5196
2016-09-17T07:33:25.352Z,4972
2016-09-17T07:34:26.054Z,4728
2016-09-17T07:35:26.698Z,5288
2016-09-17T07:36:27.360Z,5180
2016-09-17T07:37:28.041Z,6384
2016-09-17T07:38:28.706Z,7288
2016-09-17T07:39:29.377Z,6956
2016-09-17T07:40:30.051Z,6152
2016-09-17T07:41:30.731Z,6440
2016-09-17T07:42:31.400Z,6636
2016-09-17T07:43:32.064Z,6920
2016-09-17T07:44:32.735Z,6512
2016-09-17T07:45:33.391Z,5816
2016-09-17T07:46:34.046Z,5848
2016-09-17T07:47:34.702Z,5288
2016-09-17T07:48:35.352Z,6764
2016-09-17T07:49:36.010Z,8488
2016-09-17T07:50:36.683Z,10056
2016-09-17T07:51:37.348Z,10752
2016-09-17T07:52:38.012Z,8852
2016-09-17T07:53:38.663Z,6180
2016-09-17T07:54:39.315Z,5396
2016-09-17T07:55:39.967Z,7752
2016-09-17T07:56:40.613Z,6376
2016-09-17T07:57:41.262Z,6224
2016-09-17T07:58:41.894Z,7016
2016-09-17T07:59:42.549Z,6676
2016-09-17T08:00:43.200Z,5336
2016-09-17T08:01:43.854Z,4604
2016-09-17T08:02:44.520Z,6496
2016-09-17T08:03:45.199Z,7500
2016-09-17T08:04:45.854Z,7720
2016-09-17T08:05:46.520Z,8948
2016-09-17T08:06:47.164Z,9636
2016-09-17T08:07:47.843Z,10936
2016-09-17T08:08:48.486Z,11120
2016-09-17T08:09:49.179Z,10600
2016-09-17T08:10:49.857Z,9332
2016-09-17T08:11:50.521Z,9504
2016-09-17T08:12:51.164Z,9140
2016-09-17T08:13:51.833Z,8952
2016-09-17T08:14:52.486Z,8776
2016-09-17T08:15:53.139Z,8100
2016-09-17T08:16:53.790Z,7952
2016-09-17T08:17:54.439Z,7360
2016-09-17T08:18:55.104Z,6644
2016-09-17T08:19:55.752Z,6612
2016-09-17T08:20:56.392Z,6588
2016-09-17T08:21:57.034Z,7732
2016-09-17T08:22:57.711Z,6432
2016-09-17T08:23:58.367Z,6072
2016-09-17T08:24:59.050Z,7068
2016-09-17T08:25:59.802Z,6644
2016-09-17T08:27:00.454Z,5040
2016-09-17T08:28:01.126Z,5836
2016-09-17T08:29:01.761Z,7484
2016-09-17T08:30:02.428Z,6332
2016-09-17T08:31:03.070Z,6184
2016-09-17T08:32:03.751Z,5380
2016-09-17T08:33:04.410Z,5412
2016-09-17T08:34:05.081Z,6408
2016-09-17T08:35:05.755Z,6284
2016-09-17T08:36:06.421Z,8452
2016-09-17T08:37:07.080Z,12644
2016-09-17T08:38:07.740Z,19296
2016-09-17T08:39:08.393Z,13428
2016-09-17T08:40:09.040Z,9500
2016-09-17T08:41:09.683Z,12124
2016-09-17T08:42:10.342Z,12712
2016-09-17T08:43:11.014Z,14372
2016-09-17T08:44:11.694Z,14892
2016-09-17T08:45:12.351Z,14636
2016-09-17T08:46:12.994Z,18688
2016-09-17T08:47:13.664Z,14468
2016-09-17T08:48:14.339Z,11100
2016-09-17T08:49:14.976Z,9452
2016-09-17T08:50:15.636Z,8852
2016-09-17T08:51:16.311Z,8580
2016-09-17T08:52:16.971Z,8412
2016-09-17T08:53:17.638Z,8088
2016-09-17T08:54:18.283Z,7920
2016-09-17T08:55:18.943Z,7572
2016-09-17T08:56:19.593Z,7444
2016-09-17T08:57:20.266Z,7468
2016-09-17T08:58:20.970Z,7396
2016-09-17T08:59:21.637Z,7440
2016-09-17T09:00:22.420Z,7784
2016-09-17T09:01:22.991Z,8168
2016-09-17T09:02:23.677Z,8468
2016-09-17T09:03:24.326Z,8784
2016-09-17T09:04:24.977Z,8996
2016-09-17T09:05:25.685Z,9800
2016-09-17T09:06:26.357Z,9888
2016-09-17T09:07:27.182Z,10232
2016-09-17T09:08:27.838Z,10204
2016-09-17T09:09:28.505Z,10108
2016-09-17T09:10:29.281Z,9676
2016-09-17T09:11:29.918Z,9036
2016-09-17T09:12:30.581Z,8488
2016-09-17T09:13:31.224Z,8484
2016-09-17T09:14:31.910Z,8404
2016-09-17T09:15:32.599Z,9068
2016-09-17T09:16:33.291Z,9784
2016-09-17T09:17:33.997Z,10684
2016-09-17T09:18:34.636Z,11472
2016-09-17T09:19:35.329Z,12040
2016-09-17T09:20:36.075Z,12764
2016-09-17T09:21:36.732Z,13652
2016-09-17T09:22:37.387Z,14304
2016-09-17T09:23:38.749Z,14708
2016-09-17T09:24:39.411Z,14936
2016-09-17T09:25:40.083Z,14660
2016-09-17T09:26:40.744Z,14948
2016-09-17T09:27:41.413Z,15304
2016-09-17T09:28:42.119Z,15580
2016-09-17T09:29:42.810Z,15832
2016-09-17T09:30:43.473Z,16092
2016-09-17T09:31:44.129Z,16264
2016-09-17T09:32:44.803Z,16068
2016-09-17T09:33:45.483Z,14996
2016-09-17T09:34:46.165Z,14004
2016-09-17T09:35:46.824Z,13164
2016-09-17T09:36:47.493Z,12760
2016-09-17T09:37:48.150Z,12524
2016-09-17T09:38:48.806Z,12408
2016-09-17T09:39:49.521Z,12436
2016-09-17T09:40:50.223Z,12448
2016-09-17T09:41:50.947Z,12380
2016-09-17T09:42:51.601Z,12204
2016-09-17T09:43:53.127Z,11780
2016-09-17T09:44:53.809Z,11372
2016-09-17T09:45:54.506Z,11220
2016-09-17T09:46:55.174Z,11392
2016-09-17T09:47:55.840Z,11768
2016-09-17T09:48:56.543Z,12040
2016-09-17T09:49:57.208Z,12152
2016-09-17T09:50:57.927Z,11852
2016-09-17T09:51:58.590Z,11508
2016-09-17T09:52:59.247Z,11072
2016-09-17T09:53:59.928Z,10908
2016-09-17T09:55:00.625Z,10940
2016-09-17T09:56:01.275Z,11212
2016-09-17T09:57:01.966Z,11616
2016-09-17T09:58:02.622Z,12248
2016-09-17T09:59:03.327Z,12940
2016-09-17T10:00:03.972Z,13220
2016-09-17T10:01:04.634Z,13536
2016-09-17T10:02:05.279Z,13788
2016-09-17T10:03:05.954Z,14004
2016-09-17T10:04:06.638Z,14112
2016-09-17T10:05:07.323Z,14628
2016-09-17T10:06:07.985Z,15052
2016-09-17T10:07:08.641Z,15188
2016-09-17T10:08:09.312Z,14992
2016-09-17T10:09:09.970Z,14508
2016-09-17T10:10:10.657Z,14016
2016-09-17T10:11:11.302Z,13608
2016-09-17T10:12:11.982Z,13264
2016-09-17T10:13:12.656Z,13072
2016-09-17T10:14:13.320Z,13044
2016-09-17T10:15:13.978Z,13076
2016-09-17T10:16:14.625Z,13204
2016-09-17T10:17:15.351Z,13764
2016-09-17T10:18:16.035Z,14216
2016-09-17T10:19:16.725Z,14432
2016-09-17T10:20:17.381Z,13856
2016-09-17T10:21:18.045Z,12924
2016-09-17T10:22:18.706Z,12196
2016-09-17T10:23:19.393Z,11528
2016-09-17T10:24:20.049Z,11684
2016-09-17T10:25:20.721Z,12060
2016-09-17T10:26:21.400Z,12076
2016-09-17T10:27:22.851Z,12112
2016-09-17T10:28:23.512Z,12060
2016-09-17T10:29:24.159Z,12180
2016-09-17T10:30:24.817Z,12352
2016-09-17T10:31:25.477Z,12012
2016-09-17T10:32:26.171Z,10872
2016-09-17T10:33:26.834Z,9252
2016-09-17T10:34:27.475Z,8484
2016-09-17T10:35:28.145Z,8492
2016-09-17T10:36:28.795Z,8500
2016-09-17T10:37:29.443Z,9044
2016-09-17T10:38:30.094Z,9668
2016-09-17T10:39:30.751Z,10636
2016-09-17T10:40:31.398Z,11704
2016-09-17T10:41:32.053Z,11996
2016-09-17T10:42:32.718Z,11312
2016-09-17T10:43:33.379Z,10496
2016-09-17T10:44:34.046Z,9800
2016-09-17T10:45:34.698Z,9248
2016-09-17T10:46:35.354Z,8676
2016-09-17T10:47:36.015Z,8340
2016-09-17T10:48:36.674Z,8308
2016-09-17T10:49:37.340Z,8276
2016-09-17T10:50:38.006Z,8256
2016-09-17T10:51:38.662Z,8176
2016-09-17T10:52:39.368Z,8140
2016-09-17T10:53:39.980Z,8032
2016-09-17T10:54:40.633Z,8248
2016-09-17T10:55:41.299Z,8152
2016-09-17T10:56:41.961Z,8204
2016-09-17T10:57:42.613Z,8356
2016-09-17T10:58:43.267Z,8024
2016-09-17T10:59:43.929Z,7848
2016-09-17T11:00:44.581Z,7864
2016-09-17T11:01:45.230Z,7780
2016-09-17T11:02:45.933Z,7648
2016-09-17T11:03:46.600Z,7612
2016-09-17T11:04:47.252Z,7544
2016-09-17T11:05:47.903Z,7764
2016-09-17T11:06:48.571Z,7568
2016-09-17T11:07:49.232Z,7752
2016-09-17T11:08:49.901Z,8060
2016-09-17T11:09:50.542Z,7556
2016-09-17T11:10:51.343Z,7524
2016-09-17T11:11:52.186Z,8196
2016-09-17T11:12:52.757Z,8644
2016-09-17T11:13:53.431Z,7960
2016-09-17T11:14:54.099Z,8036
2016-09-17T11:15:54.744Z,8032
2016-09-17T11:16:55.409Z,7960
2016-09-17T11:17:56.080Z,7840
2016-09-17T11:18:56.922Z,8492
2016-09-17T11:19:57.536Z,8492
2016-09-17T11:20:58.194Z,8360
2016-09-17T11:21:58.860Z,8124
2016-09-17T11:22:59.513Z,8216
2016-09-17T11:24:00.160Z,8628
2016-09-17T11:25:00.854Z,7444
2016-09-17T11:26:01.581Z,7964
2016-09-17T11:27:02.249Z,7668
2016-09-17T11:28:02.892Z,8212
2016-09-17T11:29:03.610Z,7816
2016-09-17T11:30:04.261Z,7620
2016-09-17T11:31:04.969Z,8740
2016-09-17T11:32:05.639Z,7936
2016-09-17T11:33:06.336Z,7504
2016-09-17T11:34:06.985Z,8228
2016-09-17T11:35:07.653Z,6416
2016-09-17T11:36:08.312Z,7132
2016-09-17T11:37:08.979Z,7368
2016-09-17T11:38:09.651Z,7248
2016-09-17T11:39:10.350Z,7092
2016-09-17T11:40:11.073Z,7404
2016-09-17T11:41:11.757Z,7424
2016-09-17T11:42:12.411Z,7828
2016-09-17T11:43:13.097Z,8012
2016-09-17T11:44:13.760Z,7876
2016-09-17T11:45:14.433Z,7792
2016-09-17T11:46:15.106Z,7796
2016-09-17T11:47:15.781Z,8104
2016-09-17T11:48:16.452Z,7788
2016-09-17T11:49:17.111Z,7676
2016-09-17T11:50:17.789Z,7892
2016-09-17T11:51:18.468Z,7792
2016-09-17T11:52:19.147Z,7860
2016-09-17T11:53:19.783Z,7868
2016-09-17T11:54:20.486Z,7928
2016-09-17T11:55:21.174Z,7764
2016-09-17T11:56:21.834Z,7688
2016-09-17T11:57:22.502Z,7688
2016-09-17T11:58:23.179Z,7616
2016-09-17T11:59:23.824Z,7624
2016-09-17T12:00:24.478Z,7548
2016-09-17T12:01:25.152Z,7572
2016-09-17T12:02:25.797Z,7560
2016-09-17T12:03:26.486Z,7472
2016-09-17T12:04:27.133Z,7892
2016-09-17T12:05:27.807Z,7564
2016-09-17T12:06:28.454Z,7200
2016-09-17T12:07:29.126Z,7168
2016-09-17T12:08:29.800Z,7140
2016-09-17T12:09:30.445Z,7104
2016-09-17T12:10:31.088Z,7088
2016-09-17T12:11:31.811Z,7060
2016-09-17T12:12:32.468Z,6888
2016-09-17T12:13:33.299Z,6868
2016-09-17T12:14:33.946Z,6768
2016-09-17T12:15:34.601Z,6716
2016-09-17T12:16:35.303Z,6644
2016-09-17T12:17:35.978Z,6692
2016-09-17T12:18:36.636Z,6536
2016-09-17T12:19:37.315Z,6364
2016-09-17T12:20:37.970Z,6324
2016-09-17T12:21:38.633Z,6416
2016-09-17T12:22:39.290Z,6536
2016-09-17T12:23:39.942Z,6748
2016-09-17T12:24:40.599Z,6888
2016-09-17T12:25:41.256Z,7176
2016-09-17T12:26:41.908Z,7512
2016-09-17T12:27:42.567Z,7980
2016-09-17T12:28:43.251Z,8776
2016-09-17T12:29:44.025Z,9072
2016-09-17T12:30:44.689Z,8832
2016-09-17T12:31:45.363Z,8212
2016-09-17T12:32:46.036Z,7556
2016-09-17T12:33:46.682Z,6972
2016-09-17T12:34:47.363Z,6572
2016-09-17T12:35:48.022Z,6176
2016-09-17T12:36:48.671Z,5820
2016-09-17T12:37:49.331Z,5616
2016-09-17T12:38:49.987Z,5540
2016-09-17T12:39:50.662Z,5404
2016-09-17T12:40:51.326Z,5312
2016-09-17T12:41:51.981Z,5272
2016-09-17T12:42:52.654Z,5284
2016-09-17T12:43:53.325Z,5236
2016-09-17T12:44:53.953Z,5260
2016-09-17T12:45:54.630Z,5192
2016-09-17T12:46:55.297Z,5172
2016-09-17T12:47:55.985Z,5124
2016-09-17T12:48:56.637Z,5112
2016-09-17T12:49:57.288Z,5076
2016-09-17T12:50:57.948Z,5040
2016-09-17T12:51:58.612Z,5012
2016-09-17T12:52:59.277Z,5012
2016-09-17T12:53:59.913Z,4984
2016-09-17T12:55:00.572Z,4952
2016-09-17T12:56:01.218Z,4944
2016-09-17T12:57:01.872Z,5024
2016-09-17T12:58:02.540Z,5068
2016-09-17T12:59:03.207Z,4952
2016-09-17T13:00:03.857Z,5060
2016-09-17T13:01:04.512Z,5096
2016-09-17T13:02:05.162Z,5068
2016-09-17T13:03:05.817Z,5024
2016-09-17T13:04:06.460Z,4992
2016-09-17T13:05:07.140Z,5012
2016-09-17T13:06:07.815Z,5000
2016-09-17T13:07:08.478Z,5008
2016-09-17T13:08:09.132Z,4944
2016-09-17T13:09:09.772Z,4904
2016-09-17T13:10:10.447Z,4776
2016-09-17T13:11:11.103Z,4768
2016-09-17T13:12:11.752Z,4728
2016-09-17T13:13:12.409Z,4668
2016-09-17T13:14:13.092Z,4576
2016-09-17T13:15:13.772Z,4496
2016-09-17T13:16:14.498Z,4420
2016-09-17T13:17:15.132Z,4328
2016-09-17T13:18:15.784Z,4244
2016-09-17T13:19:16.427Z,4180
2016-09-17T13:20:17.082Z,4096
2016-09-17T13:21:17.747Z,3964
2016-09-17T13:22:18.410Z,3956
2016-09-17T13:23:19.104Z,3900
2016-09-17T13:24:19.764Z,3908
2016-09-17T13:25:20.435Z,3804
2016-09-17T13:26:21.115Z,3772
2016-09-17T13:27:21.782Z,3696
2016-09-17T13:28:22.453Z,3652
2016-09-17T13:29:23.124Z,3664
2016-09-17T13:30:23.801Z,3612
2016-09-17T13:31:24.471Z,3600
2016-09-17T13:32:25.104Z,3596
2016-09-17T13:33:25.759Z,3532
2016-09-17T13:34:26.412Z,3500
2016-09-17T13:35:27.090Z,3452
2016-09-17T13:36:27.747Z,3500
2016-09-17T13:37:28.404Z,3504
2016-09-17T13:38:29.057Z,3472
2016-09-17T13:39:29.712Z,3424
2016-09-17T13:40:30.388Z,3436
2016-09-17T13:41:31.035Z,3444
2016-09-17T13:42:31.698Z,3424
2016-09-17T13:43:32.359Z,3416
2016-09-17T13:44:33.012Z,3432
2016-09-17T13:45:33.668Z,3452
2016-09-17T13:46:34.325Z,3468
2016-09-17T13:47:34.982Z,3444
2016-09-17T13:48:35.630Z,3464
2016-09-17T13:49:36.291Z,3452
2016-09-17T13:50:36.976Z,3504
2016-09-17T13:51:37.652Z,3520
2016-09-17T13:52:38.316Z,3540
2016-09-17T13:53:38.980Z,3568
2016-09-17T13:54:39.627Z,3604
2016-09-17T13:55:40.294Z,3592
2016-09-17T13:56:40.945Z,3636
2016-09-17T13:57:41.625Z,3644